Time;durP1;ratioP1;P1;durP2;ratioP2;P2;SDS_P1;SDS_P2;PMS_P1;PMS_P2;Temp;Humidity;BMP_temperature;BMP_pressure;BME280_temperature;BME280_humidity;BME280_pressure;Samples;Min_cycle;Max_cycle;Signal;HPM_P1;HPM_P2
2023/08/31 00:00:52;;;;;;;4.83;3.37;;;;;;;;;;780630;180;860437;-61
2023/08/31 00:03:18;;;;;;;8.00;3.17;;;;;;;;;;775055;178;918903;-62
2023/08/31 00:05:43;;;;;;;10.93;3.30;;;;;;;;;;772026;179;812866;-59
2023/08/31 00:08:09;;;;;;;4.20;3.07;;;;;;;;;;761882;181;917126;-60
2023/08/31 00:10:35;;;;;;;4.97;2.97;;;;;;;;;;774088;181;920266;-59
2023/08/31 00:13:01;;;;;;;4.50;2.60;;;;;;;;;;775815;179;919518;-59
2023/08/31 00:15:28;;;;;;;4.50;2.97;;;;;;;;;;763455;178;920456;-60
2023/08/31 00:17:53;;;;;;;3.90;2.70;;;;;;;;;;780508;178;922676;-59
2023/08/31 00:20:18;;;;;;;3.57;3.17;;;;;;;;;;775691;178;920296;-59
2023/08/31 00:22:44;;;;;;;4.23;2.80;;;;;;;;;;773075;181;915541;-62
2023/08/31 00:25:10;;;;;;;5.13;2.83;;;;;;;;;;774206;179;955977;-61
2023/08/31 00:27:37;;;;;;;4.40;3.20;;;;;;;;;;774364;181;918603;-62
2023/08/31 00:30:03;;;;;;;4.33;3.33;;;;;;;;;;769787;179;926646;-58
2023/08/31 00:32:29;;;;;;;8.40;3.63;;;;;;;;;;770611;181;919283;-60
2023/08/31 00:34:55;;;;;;;9.23;3.63;;;;;;;;;;773257;179;919767;-62
2023/08/31 00:37:21;;;;;;;5.90;2.70;;;;;;;;;;771370;180;919591;-60
2023/08/31 00:39:47;;;;;;;3.47;2.60;;;;;;;;;;774558;179;917213;-62
2023/08/31 00:42:12;;;;;;;6.13;2.87;;;;;;;;;;776479;181;918210;-59
2023/08/31 00:44:38;;;;;;;7.20;3.53;;;;;;;;;;774371;180;919499;-63
2023/08/31 00:47:04;;;;;;;6.47;4.60;;;;;;;;;;769068;178;918803;-58
2023/08/31 00:49:30;;;;;;;5.80;3.30;;;;;;;;;;777330;180;818003;-58
2023/08/31 00:51:57;;;;;;;3.87;2.00;;;;;;;;;;773299;180;917744;-59
2023/08/31 00:54:21;;;;;;;5.07;1.80;;;;;;;;;;764388;180;921027;-58
2023/08/31 00:56:47;;;;;;;5.63;2.10;;;;;;;;;;769973;181;917914;-61
2023/08/31 00:59:14;;;;;;;2.93;1.63;;;;;;;;;;772104;181;911168;-59
2023/08/31 01:01:39;;;;;;;4.53;2.33;;;;;;;;;;774757;177;909633;-58
2023/08/31 01:04:08;;;;;;;3.30;1.60;;;;;;;;;;765042;179;912684;-63
2023/08/31 01:06:41;;;;;;;2.90;1.67;;;;;;;;;;769344;181;802497;-64
2023/08/31 01:09:07;;;;;;;3.35;1.62;;;;;;;;;;768839;181;910917;-59
2023/08/31 01:11:32;;;;;;;3.67;1.70;;;;;;;;;;774358;180;919012;-60
2023/08/31 01:13:58;;;;;;;5.60;1.90;;;;;;;;;;774043;180;917736;-61
2023/08/31 01:16:24;;;;;;;2.77;1.47;;;;;;;;;;770865;181;920048;-65
2023/08/31 01:18:50;;;;;;;3.40;1.73;;;;;;;;;;763525;180;926609;-60
2023/08/31 01:21:16;;;;;;;6.07;1.67;;;;;;;;;;772383;181;918741;-60
2023/08/31 01:23:45;;;;;;;4.00;1.50;;;;;;;;;;775663;180;920954;-65
2023/08/31 01:26:11;;;;;;;2.60;1.77;;;;;;;;;;777827;177;817832;-60
2023/08/31 01:28:37;;;;;;;3.05;1.60;;;;;;;;;;777050;177;929673;-60
2023/08/31 01:31:04;;;;;;;2.70;1.70;;;;;;;;;;778683;181;818962;-64
2023/08/31 01:33:30;;;;;;;3.40;1.57;;;;;;;;;;773988;181;919830;-63
2023/08/31 01:35:55;;;;;;;4.20;1.50;;;;;;;;;;770303;180;916871;-64
2023/08/31 01:38:22;;;;;;;6.17;1.73;;;;;;;;;;772017;179;914842;-64
2023/08/31 01:40:49;;;;;;;3.57;1.50;;;;;;;;;;780281;180;912834;-64
2023/08/31 01:43:14;;;;;;;2.50;1.63;;;;;;;;;;775224;180;880800;-61
2023/08/31 01:45:40;;;;;;;2.95;1.67;;;;;;;;;;775442;177;898306;-63
2023/08/31 01:48:06;;;;;;;2.70;1.70;;;;;;;;;;778502;181;918243;-63
2023/08/31 01:50:32;;;;;;;2.37;1.33;;;;;;;;;;771483;181;919570;-60
2023/08/31 01:52:58;;;;;;;4.10;2.10;;;;;;;;;;772067;180;988463;-64
2023/08/31 01:55:23;;;;;;;2.33;1.63;;;;;;;;;;779011;180;866113;-60
2023/08/31 01:57:49;;;;;;;2.60;1.60;;;;;;;;;;775803;178;919464;-59
2023/08/31 02:00:15;;;;;;;2.90;1.40;;;;;;;;;;776083;180;919872;-60
2023/08/31 02:02:41;;;;;;;5.40;2.43;;;;;;;;;;775695;180;918451;-63
2023/08/31 02:05:07;;;;;;;2.40;1.40;;;;;;;;;;781228;180;893936;-62
2023/08/31 02:07:33;;;;;;;3.37;1.60;;;;;;;;;;772960;178;919395;-60
2023/08/31 02:09:59;;;;;;;2.67;1.20;;;;;;;;;;771348;181;918719;-62
2023/08/31 02:12:25;;;;;;;7.00;1.73;;;;;;;;;;779701;180;919717;-60
2023/08/31 02:14:51;;;;;;;2.50;1.60;;;;;;;;;;771959;180;918971;-60
2023/08/31 02:17:16;;;;;;;2.70;1.30;;;;;;;;;;774085;180;818298;-63
2023/08/31 02:19:42;;;;;;;2.30;1.40;;;;;;;;;;779083;178;891587;-60
2023/08/31 02:22:08;;;;;;;3.40;1.57;;;;;;;;;;773679;181;919415;-63
2023/08/31 02:24:34;;;;;;;2.73;1.60;;;;;;;;;;774275;178;920063;-64
2023/08/31 02:27:00;;;;;;;6.07;1.50;;;;;;;;;;770064;180;918481;-61
2023/08/31 02:29:26;;;;;;;2.60;1.60;;;;;;;;;;776723;181;812287;-62
2023/08/31 02:31:51;;;;;;;4.07;1.65;;;;;;;;;;774877;181;919645;-63
2023/08/31 02:34:17;;;;;;;4.37;1.60;;;;;;;;;;771603;181;916686;-60
2023/08/31 02:36:43;;;;;;;3.40;1.50;;;;;;;;;;779927;180;918298;-60
2023/08/31 02:39:09;;;;;;;3.30;1.90;;;;;;;;;;778037;180;919365;-60
2023/08/31 02:41:35;;;;;;;2.97;1.50;;;;;;;;;;774781;178;953752;-60
2023/08/31 02:44:01;;;;;;;5.33;1.83;;;;;;;;;;780119;179;919523;-63
2023/08/31 02:46:26;;;;;;;15.80;2.23;;;;;;;;;;774878;181;918456;-65
2023/08/31 02:48:52;;;;;;;4.47;1.20;;;;;;;;;;773433;181;922501;-63
2023/08/31 02:51:18;;;;;;;3.00;1.70;;;;;;;;;;768902;181;919667;-61
2023/08/31 02:53:44;;;;;;;3.47;1.37;;;;;;;;;;765452;181;912730;-63
2023/08/31 02:56:10;;;;;;;2.70;1.80;;;;;;;;;;774373;179;912272;-63
2023/08/31 02:58:36;;;;;;;3.03;1.90;;;;;;;;;;773230;178;813739;-63
2023/08/31 03:01:08;;;;;;;2.70;1.50;;;;;;;;;;775487;180;1014128;-60
2023/08/31 03:03:34;;;;;;;2.75;1.58;;;;;;;;;;769601;181;917495;-60
2023/08/31 03:05:59;;;;;;;8.30;2.80;;;;;;;;;;774644;179;917729;-60
2023/08/31 03:08:25;;;;;;;6.30;3.00;;;;;;;;;;778387;181;919261;-63
2023/08/31 03:10:51;;;;;;;3.43;2.50;;;;;;;;;;767345;180;919416;-62
2023/08/31 03:13:17;;;;;;;3.40;1.87;;;;;;;;;;767854;180;906388;-60
2023/08/31 03:15:43;;;;;;;5.20;2.83;;;;;;;;;;773667;180;914735;-60
2023/08/31 03:18:08;;;;;;;4.80;3.80;;;;;;;;;;774388;177;914126;-63
2023/08/31 03:20:34;;;;;;;6.03;3.90;;;;;;;;;;772966;179;918782;-64
2023/08/31 03:23:00;;;;;;;7.53;4.77;;;;;;;;;;775650;180;817784;-63
2023/08/31 03:25:26;;;;;;;6.90;4.80;;;;;;;;;;781578;180;624962;-59
2023/08/31 03:27:52;;;;;;;8.80;5.60;;;;;;;;;;777392;177;714104;-60
2023/08/31 03:30:18;;;;;;;9.93;6.20;;;;;;;;;;775815;178;824604;-60
2023/08/31 03:32:43;;;;;;;8.37;5.70;;;;;;;;;;775454;181;917196;-60
2023/08/31 03:35:09;;;;;;;9.97;6.80;;;;;;;;;;772493;181;919394;-60
2023/08/31 03:37:35;;;;;;;12.30;6.73;;;;;;;;;;770596;180;1021395;-64
2023/08/31 03:40:04;;;;;;;10.38;7.35;;;;;;;;;;776691;178;919793;-63
2023/08/31 03:42:28;;;;;;;7.80;5.80;;;;;;;;;;775101;180;919440;-64
2023/08/31 03:44:53;;;;;;;12.40;6.77;;;;;;;;;;766950;180;919478;-62
2023/08/31 03:47:19;;;;;;;11.43;6.93;;;;;;;;;;773824;179;919376;-59
2023/08/31 03:49:45;;;;;;;12.20;7.47;;;;;;;;;;777360;180;919317;-59
2023/08/31 03:52:11;;;;;;;10.97;7.57;;;;;;;;;;774968;180;923648;-64
2023/08/31 03:54:37;;;;;;;10.00;7.23;;;;;;;;;;774605;181;816792;-63
2023/08/31 03:57:03;;;;;;;7.87;6.27;;;;;;;;;;776525;178;917446;-63
2023/08/31 03:59:28;;;;;;;7.87;6.40;;;;;;;;;;773478;180;818094;-63
2023/08/31 04:01:54;;;;;;;15.13;8.47;;;;;;;;;;774742;178;919247;-63
2023/08/31 04:04:20;;;;;;;16.47;9.03;;;;;;;;;;777715;181;919386;-63
2023/08/31 04:06:46;;;;;;;13.87;9.97;;;;;;;;;;767622;180;919243;-63
2023/08/31 04:09:12;;;;;;;18.80;9.57;;;;;;;;;;774167;179;915903;-60
2023/08/31 04:11:38;;;;;;;11.83;9.30;;;;;;;;;;774595;179;906710;-60
2023/08/31 04:14:04;;;;;;;13.93;10.00;;;;;;;;;;777049;180;918108;-60
2023/08/31 04:16:29;;;;;;;14.77;10.20;;;;;;;;;;773943;180;919506;-64
2023/08/31 04:18:55;;;;;;;16.10;10.70;;;;;;;;;;774875;180;918575;-60
2023/08/31 04:21:21;;;;;;;11.47;8.40;;;;;;;;;;776115;181;818589;-63
2023/08/31 04:23:47;;;;;;;17.13;10.27;;;;;;;;;;770675;181;920452;-63
2023/08/31 04:26:13;;;;;;;14.00;8.80;;;;;;;;;;771401;181;920896;-62
2023/08/31 04:28:40;;;;;;;11.80;8.53;;;;;;;;;;777598;181;919427;-63
2023/08/31 04:31:06;;;;;;;13.70;9.70;;;;;;;;;;774014;180;822474;-59
2023/08/31 04:33:31;;;;;;;14.07;9.63;;;;;;;;;;773886;177;919661;-64
2023/08/31 04:35:57;;;;;;;16.50;8.90;;;;;;;;;;771368;180;920170;-64
2023/08/31 04:38:23;;;;;;;12.63;8.47;;;;;;;;;;772111;180;918383;-59
2023/08/31 04:40:49;;;;;;;13.07;8.35;;;;;;;;;;769184;181;919041;-63
2023/08/31 04:43:14;;;;;;;19.17;9.60;;;;;;;;;;773161;179;915362;-63
2023/08/31 04:45:40;;;;;;;13.90;9.93;;;;;;;;;;779290;178;931905;-60
2023/08/31 04:48:06;;;;;;;18.53;10.63;;;;;;;;;;772904;180;918738;-60
2023/08/31 04:50:32;;;;;;;14.03;9.03;;;;;;;;;;771340;181;901596;-60
2023/08/31 04:52:58;;;;;;;15.50;9.60;;;;;;;;;;780811;180;918617;-60
2023/08/31 04:55:25;;;;;;;15.40;10.20;;;;;;;;;;774347;181;920409;-63
2023/08/31 04:57:50;;;;;;;17.20;9.30;;;;;;;;;;773870;180;919062;-60
2023/08/31 05:00:16;;;;;;;16.10;9.57;;;;;;;;;;777799;177;911035;-59
2023/08/31 05:02:43;;;;;;;14.53;9.40;;;;;;;;;;771730;179;919882;-63
2023/08/31 05:05:08;;;;;;;14.17;9.80;;;;;;;;;;775880;179;918496;-63
2023/08/31 05:07:34;;;;;;;15.73;11.00;;;;;;;;;;776483;180;818851;-64
2023/08/31 05:10:00;;;;;;;17.93;10.50;;;;;;;;;;778971;180;918793;-66
2023/08/31 05:12:26;;;;;;;12.87;9.83;;;;;;;;;;775929;180;919253;-63
2023/08/31 05:14:51;;;;;;;17.27;11.37;;;;;;;;;;774236;177;916081;-60
2023/08/31 05:17:17;;;;;;;16.10;12.93;;;;;;;;;;780078;178;918940;-63
2023/08/31 05:19:43;;;;;;;14.87;10.00;;;;;;;;;;772474;178;916128;-64
2023/08/31 05:22:09;;;;;;;16.43;10.13;;;;;;;;;;777246;179;913372;-58
2023/08/31 05:24:35;;;;;;;14.70;9.70;;;;;;;;;;767987;180;919333;-62
2023/08/31 05:27:01;;;;;;;21.80;11.17;;;;;;;;;;764752;182;918434;-64
2023/08/31 05:29:26;;;;;;;12.37;9.33;;;;;;;;;;771802;180;918751;-64
2023/08/31 05:31:53;;;;;;;13.83;9.63;;;;;;;;;;765125;181;869624;-60
2023/08/31 05:34:18;;;;;;;12.60;8.50;;;;;;;;;;775934;180;919091;-62
2023/08/31 05:36:44;;;;;;;14.03;10.03;;;;;;;;;;760183;180;917300;-63
2023/08/31 05:39:10;;;;;;;15.50;10.23;;;;;;;;;;774355;180;899786;-60
2023/08/31 05:41:36;;;;;;;14.20;9.40;;;;;;;;;;779111;181;919200;-60
2023/08/31 05:44:01;;;;;;;15.37;9.80;;;;;;;;;;774634;180;926736;-63
2023/08/31 05:46:27;;;;;;;14.80;9.38;;;;;;;;;;770157;180;923751;-64
2023/08/31 05:48:53;;;;;;;13.77;9.40;;;;;;;;;;779797;180;837612;-63
2023/08/31 05:51:19;;;;;;;13.50;9.17;;;;;;;;;;768220;181;919283;-60
2023/08/31 05:53:45;;;;;;;13.80;9.73;;;;;;;;;;768503;181;919146;-60
2023/08/31 05:56:11;;;;;;;13.83;9.00;;;;;;;;;;774897;181;919440;-64
2023/08/31 05:58:37;;;;;;;13.33;9.33;;;;;;;;;;778245;180;818490;-65
2023/08/31 06:01:03;;;;;;;12.00;9.70;;;;;;;;;;768710;179;924630;-64
2023/08/31 06:03:29;;;;;;;12.80;9.77;;;;;;;;;;766456;180;919806;-60
2023/08/31 06:05:55;;;;;;;14.47;9.90;;;;;;;;;;774601;180;916628;-60
2023/08/31 06:08:21;;;;;;;15.07;9.67;;;;;;;;;;774802;179;916680;-59
2023/08/31 06:10:46;;;;;;;14.20;9.60;;;;;;;;;;762683;182;901758;-66
2023/08/31 06:13:12;;;;;;;12.37;9.60;;;;;;;;;;776654;178;919214;-65
2023/08/31 06:15:38;;;;;;;14.20;8.97;;;;;;;;;;774160;180;920672;-63
2023/08/31 06:18:04;;;;;;;13.30;9.23;;;;;;;;;;774026;177;919422;-64
2023/08/31 06:20:31;;;;;;;9.70;8.63;;;;;;;;;;778920;180;919610;-65
2023/08/31 06:22:56;;;;;;;11.87;8.80;;;;;;;;;;770689;180;915086;-59
2023/08/31 06:25:22;;;;;;;12.27;7.83;;;;;;;;;;776060;177;919102;-59
2023/08/31 06:27:48;;;;;;;10.85;7.80;;;;;;;;;;773672;179;922038;-60
2023/08/31 06:30:16;;;;;;;12.30;7.90;;;;;;;;;;779002;180;921180;-63
2023/08/31 06:32:43;;;;;;;14.60;8.60;;;;;;;;;;765565;180;921940;-66
2023/08/31 06:35:08;;;;;;;10.90;8.93;;;;;;;;;;770934;180;825300;-59
2023/08/31 06:37:34;;;;;;;11.67;9.07;;;;;;;;;;778044;181;918626;-59
2023/08/31 06:40:00;;;;;;;13.37;8.97;;;;;;;;;;773292;180;919591;-64
2023/08/31 06:42:26;;;;;;;13.23;9.43;;;;;;;;;;763884;181;919730;-59
2023/08/31 06:44:51;;;;;;;14.83;9.10;;;;;;;;;;777898;180;816008;-60
2023/08/31 06:47:17;;;;;;;13.03;9.10;;;;;;;;;;764563;180;919451;-66
2023/08/31 06:49:43;;;;;;;15.50;9.80;;;;;;;;;;772638;181;817846;-64
2023/08/31 06:52:09;;;;;;;15.30;10.50;;;;;;;;;;768656;180;919255;-65
2023/08/31 06:54:35;;;;;;;12.30;10.20;;;;;;;;;;774152;180;919126;-64
2023/08/31 06:57:01;;;;;;;13.07;9.07;;;;;;;;;;770467;180;918885;-60
2023/08/31 06:59:27;;;;;;;13.10;10.13;;;;;;;;;;762961;181;919789;-61
2023/08/31 07:01:52;;;;;;;14.60;10.33;;;;;;;;;;778064;180;918555;-64
2023/08/31 07:04:18;;;;;;;16.10;10.10;;;;;;;;;;769610;180;920684;-64
2023/08/31 07:06:44;;;;;;;15.10;11.23;;;;;;;;;;768993;180;819708;-60
2023/08/31 07:09:10;;;;;;;13.57;10.17;;;;;;;;;;776615;180;918893;-58
2023/08/31 07:11:36;;;;;;;12.43;10.00;;;;;;;;;;768531;180;918931;-63
2023/08/31 07:14:02;;;;;;;12.90;10.50;;;;;;;;;;771539;180;915520;-60
2023/08/31 07:16:27;;;;;;;11.60;9.27;;;;;;;;;;772227;180;919577;-60
2023/08/31 07:18:53;;;;;;;14.97;9.53;;;;;;;;;;773512;180;920948;-60
2023/08/31 07:21:19;;;;;;;10.73;8.30;;;;;;;;;;772508;178;918974;-60
2023/08/31 07:23:45;;;;;;;11.47;8.77;;;;;;;;;;767074;180;930385;-60
2023/08/31 07:26:11;;;;;;;12.90;9.00;;;;;;;;;;768605;181;920938;-59
2023/08/31 07:28:37;;;;;;;11.00;8.30;;;;;;;;;;776914;180;919189;-59
2023/08/31 07:31:04;;;;;;;11.63;7.97;;;;;;;;;;772794;180;917377;-64
2023/08/31 07:33:31;;;;;;;12.17;8.47;;;;;;;;;;779271;180;783323;-64
2023/08/31 07:35:55;;;;;;;10.33;8.00;;;;;;;;;;772418;177;899342;-60
2023/08/31 07:38:21;;;;;;;10.23;7.87;;;;;;;;;;772850;180;914656;-64
2023/08/31 07:40:47;;;;;;;11.90;8.30;;;;;;;;;;778273;180;890419;-64
2023/08/31 07:43:13;;;;;;;12.00;7.13;;;;;;;;;;771129;180;917511;-60
2023/08/31 07:45:38;;;;;;;9.83;7.93;;;;;;;;;;772913;179;918472;-59
2023/08/31 07:48:05;;;;;;;10.70;7.13;;;;;;;;;;773890;180;915349;-60
2023/08/31 07:50:30;;;;;;;7.77;6.53;;;;;;;;;;781485;180;816642;-60
2023/08/31 07:52:56;;;;;;;7.80;7.00;;;;;;;;;;774537;180;819984;-60
2023/08/31 07:55:22;;;;;;;9.40;7.20;;;;;;;;;;774871;179;919171;-64
2023/08/31 07:57:48;;;;;;;7.43;5.93;;;;;;;;;;778917;180;818420;-61
2023/08/31 08:00:14;;;;;;;11.83;7.50;;;;;;;;;;774242;180;817081;-60
2023/08/31 08:02:40;;;;;;;7.90;6.03;;;;;;;;;;767379;181;918908;-60
2023/08/31 08:05:06;;;;;;;9.27;6.03;;;;;;;;;;780344;178;917407;-60
2023/08/31 08:07:32;;;;;;;12.33;8.33;;;;;;;;;;771923;180;824435;-60
2023/08/31 08:09:59;;;;;;;9.30;6.87;;;;;;;;;;772592;180;917229;-61
2023/08/31 08:12:24;;;;;;;9.00;6.67;;;;;;;;;;770591;180;920062;-60
2023/08/31 08:14:50;;;;;;;8.90;7.17;;;;;;;;;;775471;180;919791;-66
2023/08/31 08:17:16;;;;;;;10.73;8.03;;;;;;;;;;765960;181;919516;-64
2023/08/31 08:19:42;;;;;;;9.20;6.57;;;;;;;;;;764177;181;916555;-64
2023/08/31 08:22:07;;;;;;;7.60;6.70;;;;;;;;;;779288;180;922020;-66
2023/08/31 08:24:33;;;;;;;7.77;5.90;;;;;;;;;;771951;180;920723;-60
2023/08/31 08:26:59;;;;;;;8.80;6.70;;;;;;;;;;768779;180;921069;-60
2023/08/31 08:29:25;;;;;;;7.77;6.03;;;;;;;;;;779454;180;623568;-66
2023/08/31 08:31:51;;;;;;;8.53;6.20;;;;;;;;;;774558;180;919413;-60
2023/08/31 08:34:17;;;;;;;15.00;6.75;;;;;;;;;;772813;178;816884;-65
2023/08/31 08:36:43;;;;;;;7.53;6.13;;;;;;;;;;773572;179;1021968;-63
2023/08/31 08:39:09;;;;;;;12.70;6.40;;;;;;;;;;776313;181;911925;-66
2023/08/31 08:41:35;;;;;;;8.47;6.03;;;;;;;;;;767493;178;925109;-65
2023/08/31 08:44:00;;;;;;;7.33;6.57;;;;;;;;;;772188;178;919257;-66
2023/08/31 08:46:26;;;;;;;7.70;5.67;;;;;;;;;;778100;181;920694;-67
2023/08/31 08:48:52;;;;;;;7.30;6.20;;;;;;;;;;751274;184;987673;-65
2023/08/31 08:51:18;;;;;;;9.73;6.43;;;;;;;;;;769095;180;920958;-60
2023/08/31 08:53:44;;;;;;;6.40;5.80;;;;;;;;;;767532;181;916773;-61
2023/08/31 08:56:10;;;;;;;8.37;5.60;;;;;;;;;;766932;180;916122;-60
2023/08/31 08:58:36;;;;;;;6.63;4.80;;;;;;;;;;771516;178;920629;-66
2023/08/31 09:01:02;;;;;;;6.53;4.80;;;;;;;;;;776396;181;919708;-66
2023/08/31 09:03:27;;;;;;;7.30;5.90;;;;;;;;;;774443;180;865159;-67
2023/08/31 09:05:53;;;;;;;8.77;4.90;;;;;;;;;;768224;180;919259;-66
2023/08/31 09:08:20;;;;;;;9.70;5.30;;;;;;;;;;770819;177;918589;-65
2023/08/31 09:10:46;;;;;;;8.10;5.07;;;;;;;;;;777671;180;917597;-60
2023/08/31 09:13:12;;;;;;;8.93;6.30;;;;;;;;;;770630;177;919194;-67
2023/08/31 09:15:39;;;;;;;6.53;5.07;;;;;;;;;;771919;179;627901;-66
2023/08/31 09:18:05;;;;;;;8.50;6.20;;;;;;;;;;776780;180;919617;-65
2023/08/31 09:20:31;;;;;;;6.23;4.93;;;;;;;;;;768638;180;919834;-66
2023/08/31 09:22:57;;;;;;;7.33;5.07;;;;;;;;;;773861;180;919346;-60
2023/08/31 09:25:22;;;;;;;8.00;5.57;;;;;;;;;;781282;180;816414;-60
2023/08/31 09:27:48;;;;;;;6.32;5.32;;;;;;;;;;770962;180;918967;-61
2023/08/31 09:30:14;;;;;;;7.43;5.23;;;;;;;;;;770285;179;924274;-67
2023/08/31 09:32:41;;;;;;;6.00;4.90;;;;;;;;;;760585;181;851459;-66
2023/08/31 09:35:07;;;;;;;15.53;5.60;;;;;;;;;;777875;180;919619;-66
2023/08/31 09:37:33;;;;;;;7.30;6.10;;;;;;;;;;774219;180;919274;-60
2023/08/31 09:39:58;;;;;;;6.00;4.70;;;;;;;;;;772684;181;918081;-60
2023/08/31 09:42:24;;;;;;;6.37;5.10;;;;;;;;;;771425;178;897645;-66
2023/08/31 09:44:51;;;;;;;8.40;5.50;;;;;;;;;;771166;179;919573;-61
2023/08/31 09:47:16;;;;;;;9.10;5.00;;;;;;;;;;770204;178;922550;-67
2023/08/31 09:49:42;;;;;;;6.23;5.27;;;;;;;;;;779307;178;919728;-66
2023/08/31 09:52:08;;;;;;;5.80;4.77;;;;;;;;;;772889;179;920322;-66
2023/08/31 09:54:33;;;;;;;5.80;3.90;;;;;;;;;;775035;177;924271;-59
2023/08/31 09:57:00;;;;;;;7.23;3.60;;;;;;;;;;775108;180;917338;-65
2023/08/31 09:59:25;;;;;;;6.45;4.32;;;;;;;;;;775247;180;917117;-66
2023/08/31 10:01:51;;;;;;;7.23;5.67;;;;;;;;;;773641;181;911359;-67
2023/08/31 10:04:17;;;;;;;4.97;4.20;;;;;;;;;;767504;181;928472;-62
2023/08/31 10:06:43;;;;;;;4.83;4.10;;;;;;;;;;780598;180;917995;-67
2023/08/31 10:09:11;;;;;;;5.73;4.40;;;;;;;;;;776568;177;623744;-66
2023/08/31 10:11:36;;;;;;;4.70;3.23;;;;;;;;;;777384;179;626613;-60
2023/08/31 10:14:03;;;;;;;6.20;4.30;;;;;;;;;;767932;182;802310;-60
2023/08/31 10:16:28;;;;;;;7.13;4.50;;;;;;;;;;772745;180;817236;-60
2023/08/31 10:18:54;;;;;;;6.87;3.67;;;;;;;;;;774383;178;919131;-67
2023/08/31 10:21:20;;;;;;;6.10;4.47;;;;;;;;;;774833;177;917073;-60
2023/08/31 10:23:46;;;;;;;4.57;3.90;;;;;;;;;;768480;180;922793;-59
2023/08/31 10:26:12;;;;;;;6.07;3.70;;;;;;;;;;764515;181;669180;-60
2023/08/31 10:28:38;;;;;;;7.50;3.67;;;;;;;;;;775935;178;633108;-61
2023/08/31 10:31:05;;;;;;;4.97;4.30;;;;;;;;;;767292;182;816678;-60
2023/08/31 10:33:31;;;;;;;6.03;4.33;;;;;;;;;;767839;180;909293;-66
2023/08/31 10:35:57;;;;;;;4.57;3.50;;;;;;;;;;775853;177;615023;-61
2023/08/31 10:38:28;;;;;;;5.20;3.90;;;;;;;;;;778943;180;917390;-61
2023/08/31 10:40:59;;;;;;;5.10;3.57;;;;;;;;;;778110;180;919931;-67
2023/08/31 10:43:25;;;;;;;5.30;4.80;;;;;;;;;;771222;180;918586;-66
2023/08/31 10:45:51;;;;;;;5.40;4.60;;;;;;;;;;772374;179;845546;-67
2023/08/31 10:48:18;;;;;;;7.60;4.60;;;;;;;;;;779422;180;918563;-66
2023/08/31 10:50:43;;;;;;;7.60;3.77;;;;;;;;;;773039;181;918914;-65
2023/08/31 10:53:09;;;;;;;4.27;3.60;;;;;;;;;;771695;177;919233;-67
2023/08/31 10:55:41;;;;;;;6.57;3.70;;;;;;;;;;763375;180;918667;-61
2023/08/31 10:58:10;;;;;;;4.30;3.50;;;;;;;;;;781577;176;916562;-67
2023/08/31 11:00:42;;;;;;;4.20;3.57;;;;;;;;;;768043;181;919192;-67
2023/08/31 11:03:08;;;;;;;6.43;3.83;;;;;;;;;;773452;180;916455;-68
2023/08/31 11:05:34;;;;;;;4.90;4.33;;;;;;;;;;769395;181;916470;-61
2023/08/31 11:08:00;;;;;;;4.90;3.70;;;;;;;;;;780271;181;817098;-61
2023/08/31 11:10:29;;;;;;;7.17;4.07;;;;;;;;;;773626;180;874090;-61
2023/08/31 11:12:54;;;;;;;5.03;4.03;;;;;;;;;;774799;177;938534;-67
2023/08/31 11:15:20;;;;;;;4.77;3.80;;;;;;;;;;778256;180;919659;-67
2023/08/31 11:17:46;;;;;;;5.90;3.77;;;;;;;;;;771336;181;941080;-67
2023/08/31 11:20:13;;;;;;;4.30;3.53;;;;;;;;;;775777;180;856356;-61
2023/08/31 11:22:39;;;;;;;4.10;3.17;;;;;;;;;;776309;180;919192;-66
2023/08/31 11:25:05;;;;;;;5.33;2.60;;;;;;;;;;769101;181;942506;-68
2023/08/31 11:27:31;;;;;;;3.20;1.67;;;;;;;;;;763710;182;915978;-67
2023/08/31 11:29:57;;;;;;;2.50;1.70;;;;;;;;;;767509;180;924512;-68
2023/08/31 11:32:24;;;;;;;2.92;1.65;;;;;;;;;;780336;178;918489;-69
2023/08/31 11:34:49;;;;;;;4.67;2.07;;;;;;;;;;774803;178;919008;-60
2023/08/31 11:37:16;;;;;;;3.93;1.97;;;;;;;;;;769899;181;919474;-60
2023/08/31 11:39:47;;;;;;;3.60;2.27;;;;;;;;;;776532;181;922268;-60
2023/08/31 11:42:13;;;;;;;3.70;1.87;;;;;;;;;;779262;180;919141;-60
2023/08/31 11:44:42;;;;;;;3.47;1.97;;;;;;;;;;772192;181;918318;-68
2023/08/31 11:47:08;;;;;;;3.57;2.30;;;;;;;;;;769425;180;919452;-66
2023/08/31 11:49:34;;;;;;;3.30;2.20;;;;;;;;;;780113;180;873661;-58
2023/08/31 11:52:00;;;;;;;2.60;1.80;;;;;;;;;;775836;177;919027;-67
2023/08/31 11:54:26;;;;;;;3.30;2.10;;;;;;;;;;770968;181;918617;-67
2023/08/31 11:56:52;;;;;;;3.27;2.33;;;;;;;;;;777984;180;819858;-59
2023/08/31 11:59:17;;;;;;;4.33;2.90;;;;;;;;;;774129;179;925301;-60
2023/08/31 12:01:43;;;;;;;4.07;2.57;;;;;;;;;;772209;177;925177;-60
2023/08/31 12:04:10;;;;;;;2.90;1.67;;;;;;;;;;773877;179;822187;-60
2023/08/31 12:06:36;;;;;;;3.90;2.20;;;;;;;;;;768046;180;919124;-60
2023/08/31 12:09:04;;;;;;;2.70;1.53;;;;;;;;;;768923;179;816984;-67
2023/08/31 12:11:27;;;;;;;3.77;1.80;;;;;;;;;;774838;179;919372;-67
2023/08/31 12:13:53;;;;;;;3.10;2.00;;;;;;;;;;781611;180;913731;-67
2023/08/31 12:16:19;;;;;;;2.90;1.77;;;;;;;;;;773709;177;916003;-61
2023/08/31 12:18:45;;;;;;;3.93;1.50;;;;;;;;;;773672;180;871314;-67
2023/08/31 12:21:11;;;;;;;6.20;2.43;;;;;;;;;;767980;178;917410;-67
2023/08/31 12:23:37;;;;;;;2.90;1.70;;;;;;;;;;768678;182;919304;-62
2023/08/31 12:26:03;;;;;;;2.73;1.43;;;;;;;;;;775919;180;919245;-61
2023/08/31 12:28:29;;;;;;;3.15;1.58;;;;;;;;;;777420;179;926756;-67
2023/08/31 12:30:57;;;;;;;2.90;1.73;;;;;;;;;;774505;180;819006;-62
2023/08/31 12:33:24;;;;;;;4.90;1.80;;;;;;;;;;774574;180;919609;-68
2023/08/31 12:35:49;;;;;;;3.20;1.50;;;;;;;;;;772822;179;918697;-68
2023/08/31 12:38:15;;;;;;;5.80;1.73;;;;;;;;;;775125;179;858348;-61
2023/08/31 12:40:42;;;;;;;4.87;1.80;;;;;;;;;;764142;180;920348;-62
2023/08/31 12:43:09;;;;;;;2.80;1.77;;;;;;;;;;771423;180;921044;-61
2023/08/31 12:45:34;;;;;;;3.47;1.70;;;;;;;;;;779755;178;894870;-60
2023/08/31 12:47:59;;;;;;;2.97;1.50;;;;;;;;;;766370;177;921326;-67
2023/08/31 12:50:25;;;;;;;3.17;1.75;;;;;;;;;;765260;177;920081;-61
2023/08/31 12:52:51;;;;;;;4.03;1.90;;;;;;;;;;762293;179;921875;-67
2023/08/31 12:55:17;;;;;;;3.62;2.58;;;;;;;;;;770253;180;919308;-61
2023/08/31 12:57:43;;;;;;;4.23;1.80;;;;;;;;;;771585;180;917277;-69
2023/08/31 13:00:12;;;;;;;3.87;1.47;;;;;;;;;;773010;179;921270;-62
2023/08/31 13:02:38;;;;;;;3.08;1.95;;;;;;;;;;775864;180;817944;-69
2023/08/31 13:05:05;;;;;;;3.70;2.20;;;;;;;;;;769358;180;918778;-61
2023/08/31 13:07:30;;;;;;;2.90;1.80;;;;;;;;;;764721;181;892653;-61
2023/08/31 13:09:56;;;;;;;2.80;1.50;;;;;;;;;;778716;180;897391;-69
2023/08/31 13:12:22;;;;;;;2.83;1.90;;;;;;;;;;773281;177;918745;-62
2023/08/31 13:14:48;;;;;;;2.73;1.70;;;;;;;;;;770224;179;918415;-61
2023/08/31 13:17:14;;;;;;;6.40;2.00;;;;;;;;;;766254;181;898758;-59
2023/08/31 13:19:40;;;;;;;3.03;1.90;;;;;;;;;;767984;178;923258;-61
2023/08/31 13:22:05;;;;;;;2.63;1.63;;;;;;;;;;769210;180;919324;-70
2023/08/31 13:24:31;;;;;;;2.77;1.73;;;;;;;;;;769657;179;918640;-61
2023/08/31 13:26:57;;;;;;;3.67;2.13;;;;;;;;;;779742;179;920862;-60
2023/08/31 13:29:23;;;;;;;3.60;1.60;;;;;;;;;;773911;179;914981;-68
2023/08/31 13:31:49;;;;;;;3.37;1.70;;;;;;;;;;769923;177;924747;-61
2023/08/31 13:34:15;;;;;;;4.07;1.77;;;;;;;;;;777534;177;917192;-62
2023/08/31 13:36:41;;;;;;;3.23;1.80;;;;;;;;;;774041;177;915723;-60
2023/08/31 13:39:07;;;;;;;3.00;1.53;;;;;;;;;;770143;181;817189;-60
2023/08/31 13:41:32;;;;;;;2.83;1.73;;;;;;;;;;772411;180;918702;-60
2023/08/31 13:43:58;;;;;;;2.80;1.80;;;;;;;;;;770390;178;845480;-70
2023/08/31 13:46:24;;;;;;;2.60;1.80;;;;;;;;;;776712;180;815592;-68
2023/08/31 13:48:50;;;;;;;3.67;2.00;;;;;;;;;;771369;180;927568;-67
2023/08/31 13:51:16;;;;;;;3.90;1.90;;;;;;;;;;775351;179;918749;-60
2023/08/31 13:53:42;;;;;;;7.37;1.80;;;;;;;;;;773467;180;919289;-68
2023/08/31 13:56:08;;;;;;;9.10;2.17;;;;;;;;;;772335;180;918445;-67
2023/08/31 13:58:34;;;;;;;3.57;1.73;;;;;;;;;;778267;180;920718;-67
2023/08/31 14:01:01;;;;;;;4.40;2.40;;;;;;;;;;775036;181;818409;-67
2023/08/31 14:03:27;;;;;;;4.83;2.30;;;;;;;;;;772978;180;817214;-60
2023/08/31 14:05:52;;;;;;;2.90;1.77;;;;;;;;;;777558;180;919198;-60
2023/08/31 14:08:18;;;;;;;3.73;2.10;;;;;;;;;;773732;180;888767;-60
2023/08/31 14:10:44;;;;;;;3.10;2.00;;;;;;;;;;772447;181;890188;-60
2023/08/31 14:13:10;;;;;;;3.30;2.00;;;;;;;;;;771393;181;818039;-66
2023/08/31 14:15:36;;;;;;;3.20;1.70;;;;;;;;;;778476;180;919574;-67
2023/08/31 14:18:01;;;;;;;2.80;1.67;;;;;;;;;;770072;180;919175;-65